Allred, TN

2:03 PM CDT on September 02, 2015 (GMT -0500)
Overlook Point | | Change Station
CLOSE
Current Station
Personal Weather Station
Location: Cookeville, TN
Elevation: 1460 ft
Nearby Weather Stations

Elev 1460 ft 36.20 °N, 85.37 °W | Updated 5 minutes ago

Partly Cloudy
Partly Cloudy
86.5 °F
Feels Like 90 °F
N
1.7
Wind Variable Wind from WSW

Today
High -- | Low -- °F
--% Chance of Precip.
Yesterday
High -- | Low -- °F
Precip. -- in
6:12 AM 7:07 PM
Waning Gibbous, 78% visible
Pressure 30.09 in
Visibility 10.0 miles
Clouds Scattered Clouds 5000 ft
Heat Index 90 °F
Dew Point 68 °F
Humidity 55%
Rainfall 0.00 in
Snow Depth Not available.
UV 7 out of 12
Pollen 10.20 out of 12
Air Quality Not available.
Flu Activity Not available.
METAR KSRB 021855Z AUTO 36004KT 10SM SCT050 32/21 A3009 RMK
Pressure 30.09 in
Visibility 10.0 miles
Clouds Scattered Clouds 5000 ft
Heat Index 90 °F
Dew Point 68 °F
Humidity 55%
Rainfall 0.00 in
Snow Depth Not available.
UV 7 out of 12
Pollen 10.20 out of 12
Air Quality Not available.
Flu Activity Not available.
METAR KSRB 021855Z AUTO 36004KT 10SM SCT050 32/21 A3009 RMK

10-Day Weather Forecast

×

Almanac

Astronomy

Sep. 02, 2015 Rise Set
Actual Time
Civil Twilight
Nautical Twilight
Astronomical Twilight
Moon
Length of Visible Light
Length of Day
Tomorrow will be .
, % of the Moon is Illuminated

Today's Extremes

State Highs State Lows

Community

WunderPhotos

Upload Photos

1,851,799 photos uploaded!

WunderBlogs® & News

Nearby

Air Quality

  Air Quality AQ Index Pollutant
Not available.

Snow Depth

Station Depth Elevation

Earthquake Activity

City Distance Mag. Time & Date
Minimum magnitude displayed is 2.5.

Coastal Water Temperatures

Place Temperature

Stations

Nearby Weather Stations

Station Location Temp. Windchill Dew Point Humidity Wind Precip. Elev Updated Type